sensor_id;sensor_type;location;lat;lon;timestamp;P1;durP1;ratioP1;P2;durP2;ratioP2
61938;SDS011;47897;50.322;18.892;2022-09-09T00:05:14;30.40;;;17.50;;
61938;SDS011;47897;50.322;18.892;2022-09-09T00:07:53;30.00;;;17.60;;
61938;SDS011;47897;50.322;18.892;2022-09-09T00:10:28;30.30;;;18.70;;
61938;SDS011;47897;50.322;18.892;2022-09-09T00:21:17;30.40;;;18.20;;
61938;SDS011;47897;50.322;18.892;2022-09-09T00:23:51;31.80;;;18.40;;
61938;SDS011;47897;50.322;18.892;2022-09-09T00:26:31;33.70;;;19.70;;
61938;SDS011;47897;50.322;18.892;2022-09-09T00:31:39;30.50;;;17.60;;
61938;SDS011;47897;50.322;18.892;2022-09-09T00:34:13;34.50;;;19.00;;
61938;SDS011;47897;50.322;18.892;2022-09-09T00:36:44;41.80;;;22.00;;
61938;SDS011;47897;50.322;18.892;2022-09-09T00:39:34;41.00;;;20.70;;
61938;SDS011;47897;50.322;18.892;2022-09-09T00:44:55;57.90;;;26.50;;
61938;SDS011;47897;50.322;18.892;2022-09-09T00:50:17;52.50;;;24.90;;
61938;SDS011;47897;50.322;18.892;2022-09-09T00:58:25;47.40;;;23.30;;
61938;SDS011;47897;50.322;18.892;2022-09-09T01:00:58;49.70;;;24.30;;
61938;SDS011;47897;50.322;18.892;2022-09-09T01:03:35;55.00;;;23.30;;
61938;SDS011;47897;50.322;18.892;2022-09-09T01:06:15;44.40;;;22.80;;
61938;SDS011;47897;50.322;18.892;2022-09-09T01:11:16;48.20;;;23.30;;
61938;SDS011;47897;50.322;18.892;2022-09-09T01:13:49;57.60;;;25.00;;
61938;SDS011;47897;50.322;18.892;2022-09-09T01:16:25;62.20;;;27.00;;
61938;SDS011;47897;50.322;18.892;2022-09-09T01:18:55;62.60;;;27.40;;
61938;SDS011;47897;50.322;18.892;2022-09-09T01:21:35;65.40;;;26.80;;
61938;SDS011;47897;50.322;18.892;2022-09-09T01:26:56;58.60;;;25.70;;
61938;SDS011;47897;50.322;18.892;2022-09-09T01:29:27;55.70;;;25.50;;
61938;SDS011;47897;50.322;18.892;2022-09-09T01:31:56;58.80;;;26.50;;
61938;SDS011;47897;50.322;18.892;2022-09-09T01:34:25;69.10;;;27.60;;
61938;SDS011;47897;50.322;18.892;2022-09-09T01:39:27;69.00;;;28.70;;
61938;SDS011;47897;50.322;18.892;2022-09-09T01:41:55;65.30;;;29.00;;
61938;SDS011;47897;50.322;18.892;2022-09-09T01:44:23;64.80;;;27.80;;
61938;SDS011;47897;50.322;18.892;2022-09-09T01:46:52;64.80;;;27.10;;
61938;SDS011;47897;50.322;18.892;2022-09-09T01:49:19;66.00;;;28.20;;
61938;SDS011;47897;50.322;18.892;2022-09-09T01:51:49;62.10;;;27.40;;
61938;SDS011;47897;50.322;18.892;2022-09-09T01:54:19;64.90;;;29.20;;
61938;SDS011;47897;50.322;18.892;2022-09-09T02:08:10;70.50;;;29.50;;
61938;SDS011;47897;50.322;18.892;2022-09-09T02:10:58;67.40;;;29.80;;
61938;SDS011;47897;50.322;18.892;2022-09-09T02:13:28;65.50;;;29.00;;
61938;SDS011;47897;50.322;18.892;2022-09-09T02:15:56;72.50;;;29.50;;
61938;SDS011;47897;50.322;18.892;2022-09-09T02:18:35;68.60;;;28.20;;
61938;SDS011;47897;50.322;18.892;2022-09-09T02:21:06;59.70;;;28.30;;
61938;SDS011;47897;50.322;18.892;2022-09-09T02:23:38;66.90;;;29.10;;
61938;SDS011;47897;50.322;18.892;2022-09-09T02:26:11;66.60;;;30.50;;
61938;SDS011;47897;50.322;18.892;2022-09-09T02:28:46;58.20;;;28.20;;
61938;SDS011;47897;50.322;18.892;2022-09-09T02:31:18;60.20;;;28.70;;
61938;SDS011;47897;50.322;18.892;2022-09-09T02:33:52;63.10;;;28.50;;
61938;SDS011;47897;50.322;18.892;2022-09-09T02:36:24;57.00;;;28.00;;
61938;SDS011;47897;50.322;18.892;2022-09-09T02:38:53;58.60;;;27.80;;
61938;SDS011;47897;50.322;18.892;2022-09-09T02:41:25;66.70;;;28.50;;
61938;SDS011;47897;50.322;18.892;2022-09-09T02:43:57;67.90;;;30.80;;
61938;SDS011;47897;50.322;18.892;2022-09-09T02:51:42;58.60;;;28.20;;
61938;SDS011;47897;50.322;18.892;2022-09-09T02:54:27;56.80;;;27.00;;
61938;SDS011;47897;50.322;18.892;2022-09-09T02:57:00;54.60;;;27.50;;
61938;SDS011;47897;50.322;18.892;2022-09-09T02:59:33;51.70;;;26.00;;
61938;SDS011;47897;50.322;18.892;2022-09-09T03:02:00;55.80;;;28.00;;
61938;SDS011;47897;50.322;18.892;2022-09-09T03:04:27;54.90;;;27.90;;
61938;SDS011;47897;50.322;18.892;2022-09-09T03:06:55;55.50;;;27.10;;
61938;SDS011;47897;50.322;18.892;2022-09-09T03:09:22;52.90;;;25.30;;
61938;SDS011;47897;50.322;18.892;2022-09-09T03:11:49;52.80;;;25.00;;
61938;SDS011;47897;50.322;18.892;2022-09-09T03:14:16;47.90;;;24.50;;
61938;SDS011;47897;50.322;18.892;2022-09-09T03:16:47;48.40;;;24.60;;
61938;SDS011;47897;50.322;18.892;2022-09-09T03:19:14;48.60;;;24.40;;
61938;SDS011;47897;50.322;18.892;2022-09-09T03:21:41;44.40;;;24.70;;
61938;SDS011;47897;50.322;18.892;2022-09-09T03:24:08;47.50;;;23.90;;
61938;SDS011;47897;50.322;18.892;2022-09-09T03:26:36;42.00;;;21.80;;
61938;SDS011;47897;50.322;18.892;2022-09-09T03:29:04;45.00;;;23.20;;
61938;SDS011;47897;50.322;18.892;2022-09-09T03:31:33;44.10;;;23.10;;
61938;SDS011;47897;50.322;18.892;2022-09-09T03:34:02;44.80;;;23.80;;
61938;SDS011;47897;50.322;18.892;2022-09-09T03:36:29;44.60;;;22.30;;
61938;SDS011;47897;50.322;18.892;2022-09-09T03:38:57;42.90;;;22.70;;
61938;SDS011;47897;50.322;18.892;2022-09-09T03:41:24;41.70;;;22.50;;
61938;SDS011;47897;50.322;18.892;2022-09-09T03:43:52;39.00;;;21.40;;
61938;SDS011;47897;50.322;18.892;2022-09-09T03:46:21;45.80;;;23.90;;
61938;SDS011;47897;50.322;18.892;2022-09-09T03:48:49;40.90;;;21.70;;
61938;SDS011;47897;50.322;18.892;2022-09-09T03:51:16;43.40;;;23.00;;
61938;SDS011;47897;50.322;18.892;2022-09-09T03:53:43;41.10;;;23.50;;
61938;SDS011;47897;50.322;18.892;2022-09-09T03:56:10;44.00;;;24.10;;
61938;SDS011;47897;50.322;18.892;2022-09-09T03:58:37;43.50;;;22.70;;
61938;SDS011;47897;50.322;18.892;2022-09-09T04:01:06;45.00;;;22.90;;
61938;SDS011;47897;50.322;18.892;2022-09-09T04:03:37;43.80;;;23.30;;
61938;SDS011;47897;50.322;18.892;2022-09-09T04:06:04;40.40;;;22.40;;
61938;SDS011;47897;50.322;18.892;2022-09-09T04:08:34;51.90;;;23.00;;
61938;SDS011;47897;50.322;18.892;2022-09-09T04:11:02;39.40;;;22.10;;
61938;SDS011;47897;50.322;18.892;2022-09-09T04:13:34;39.50;;;23.40;;
61938;SDS011;47897;50.322;18.892;2022-09-09T04:16:04;38.50;;;21.70;;
61938;SDS011;47897;50.322;18.892;2022-09-09T04:18:31;34.90;;;20.20;;
61938;SDS011;47897;50.322;18.892;2022-09-09T04:20:59;31.90;;;18.60;;
61938;SDS011;47897;50.322;18.892;2022-09-09T04:23:27;30.80;;;17.30;;
61938;SDS011;47897;50.322;18.892;2022-09-09T04:28:26;31.10;;;17.80;;
61938;SDS011;47897;50.322;18.892;2022-09-09T04:30:55;39.40;;;20.00;;
61938;SDS011;47897;50.322;18.892;2022-09-09T04:33:23;35.90;;;20.60;;
61938;SDS011;47897;50.322;18.892;2022-09-09T04:35:54;39.20;;;21.20;;
61938;SDS011;47897;50.322;18.892;2022-09-09T04:38:21;38.20;;;20.70;;
61938;SDS011;47897;50.322;18.892;2022-09-09T04:40:52;39.40;;;21.60;;
61938;SDS011;47897;50.322;18.892;2022-09-09T04:43:20;35.70;;;20.20;;
61938;SDS011;47897;50.322;18.892;2022-09-09T04:45:49;38.30;;;20.60;;
61938;SDS011;47897;50.322;18.892;2022-09-09T04:48:20;39.40;;;22.40;;
61938;SDS011;47897;50.322;18.892;2022-09-09T04:51:21;38.30;;;21.80;;
61938;SDS011;47897;50.322;18.892;2022-09-09T04:53:40;41.60;;;23.10;;
61938;SDS011;47897;50.322;18.892;2022-09-09T04:56:11;38.90;;;21.20;;
61938;SDS011;47897;50.322;18.892;2022-09-09T04:58:40;36.60;;;20.50;;
61938;SDS011;47897;50.322;18.892;2022-09-09T05:01:11;35.30;;;19.90;;
61938;SDS011;47897;50.322;18.892;2022-09-09T05:03:40;45.10;;;23.60;;
61938;SDS011;47897;50.322;18.892;2022-09-09T05:06:09;39.90;;;21.80;;
61938;SDS011;47897;50.322;18.892;2022-09-09T05:08:37;37.10;;;19.90;;
61938;SDS011;47897;50.322;18.892;2022-09-09T05:13:46;31.70;;;18.00;;
61938;SDS011;47897;50.322;18.892;2022-09-09T05:16:14;35.00;;;20.00;;
61938;SDS011;47897;50.322;18.892;2022-09-09T05:18:41;35.90;;;19.10;;
61938;SDS011;47897;50.322;18.892;2022-09-09T05:21:09;41.80;;;22.70;;
61938;SDS011;47897;50.322;18.892;2022-09-09T05:23:37;47.80;;;27.00;;
61938;SDS011;47897;50.322;18.892;2022-09-09T05:26:05;53.30;;;26.60;;
61938;SDS011;47897;50.322;18.892;2022-09-09T05:28:34;45.10;;;26.10;;
61938;SDS011;47897;50.322;18.892;2022-09-09T05:31:03;49.30;;;25.20;;
61938;SDS011;47897;50.322;18.892;2022-09-09T05:33:34;46.10;;;25.10;;
61938;SDS011;47897;50.322;18.892;2022-09-09T05:36:03;50.70;;;26.50;;
61938;SDS011;47897;50.322;18.892;2022-09-09T05:38:32;48.40;;;25.00;;
61938;SDS011;47897;50.322;18.892;2022-09-09T05:41:02;47.20;;;25.10;;
61938;SDS011;47897;50.322;18.892;2022-09-09T05:43:30;43.40;;;23.60;;
61938;SDS011;47897;50.322;18.892;2022-09-09T05:45:59;46.20;;;23.80;;
61938;SDS011;47897;50.322;18.892;2022-09-09T05:48:28;45.30;;;23.30;;
61938;SDS011;47897;50.322;18.892;2022-09-09T05:50:56;45.10;;;23.90;;
61938;SDS011;47897;50.322;18.892;2022-09-09T05:53:24;39.10;;;23.90;;
61938;SDS011;47897;50.322;18.892;2022-09-09T05:55:59;42.90;;;23.00;;
61938;SDS011;47897;50.322;18.892;2022-09-09T05:58:33;43.70;;;24.10;;
61938;SDS011;47897;50.322;18.892;2022-09-09T06:01:08;41.40;;;22.00;;
61938;SDS011;47897;50.322;18.892;2022-09-09T06:03:37;34.90;;;20.10;;
61938;SDS011;47897;50.322;18.892;2022-09-09T06:06:06;36.90;;;21.30;;
61938;SDS011;47897;50.322;18.892;2022-09-09T06:08:37;39.60;;;21.30;;
61938;SDS011;47897;50.322;18.892;2022-09-09T06:11:12;34.90;;;21.10;;
61938;SDS011;47897;50.322;18.892;2022-09-09T06:13:43;36.60;;;21.00;;
61938;SDS011;47897;50.322;18.892;2022-09-09T06:16:11;36.40;;;20.80;;
61938;SDS011;47897;50.322;18.892;2022-09-09T06:18:39;37.00;;;20.20;;
61938;SDS011;47897;50.322;18.892;2022-09-09T06:21:15;32.20;;;20.40;;
61938;SDS011;47897;50.322;18.892;2022-09-09T06:23:43;35.80;;;20.30;;
61938;SDS011;47897;50.322;18.892;2022-09-09T06:26:12;32.00;;;18.90;;
61938;SDS011;47897;50.322;18.892;2022-09-09T06:28:46;34.50;;;19.40;;
61938;SDS011;47897;50.322;18.892;2022-09-09T06:31:14;31.90;;;19.80;;
61938;SDS011;47897;50.322;18.892;2022-09-09T06:33:50;35.40;;;20.40;;
61938;SDS011;47897;50.322;18.892;2022-09-09T06:36:25;27.70;;;17.50;;
61938;SDS011;47897;50.322;18.892;2022-09-09T06:38:58;34.00;;;20.10;;
61938;SDS011;47897;50.322;18.892;2022-09-09T06:41:26;31.10;;;18.10;;
61938;SDS011;47897;50.322;18.892;2022-09-09T06:43:55;27.70;;;17.10;;
61938;SDS011;47897;50.322;18.892;2022-09-09T06:46:23;30.40;;;17.40;;
61938;SDS011;47897;50.322;18.892;2022-09-09T06:48:54;31.50;;;17.80;;
61938;SDS011;47897;50.322;18.892;2022-09-09T06:51:34;28.40;;;15.70;;
61938;SDS011;47897;50.322;18.892;2022-09-09T06:54:03;28.80;;;17.80;;
61938;SDS011;47897;50.322;18.892;2022-09-09T06:56:34;28.60;;;16.70;;
61938;SDS011;47897;50.322;18.892;2022-09-09T06:59:03;28.40;;;15.90;;
61938;SDS011;47897;50.322;18.892;2022-09-09T07:01:33;26.40;;;17.40;;
61938;SDS011;47897;50.322;18.892;2022-09-09T07:04:02;32.60;;;19.70;;
61938;SDS011;47897;50.322;18.892;2022-09-09T07:06:31;29.50;;;18.20;;
61938;SDS011;47897;50.322;18.892;2022-09-09T07:09:02;24.60;;;15.60;;
61938;SDS011;47897;50.322;18.892;2022-09-09T07:11:36;24.00;;;14.50;;
61938;SDS011;47897;50.322;18.892;2022-09-09T07:14:05;20.80;;;13.80;;
61938;SDS011;47897;50.322;18.892;2022-09-09T07:16:33;21.20;;;13.50;;
61938;SDS011;47897;50.322;18.892;2022-09-09T07:19:03;22.70;;;14.10;;
61938;SDS011;47897;50.322;18.892;2022-09-09T07:21:31;18.70;;;13.20;;
61938;SDS011;47897;50.322;18.892;2022-09-09T07:23:58;19.00;;;11.50;;
61938;SDS011;47897;50.322;18.892;2022-09-09T07:26:27;19.40;;;12.60;;
61938;SDS011;47897;50.322;18.892;2022-09-09T07:28:56;18.80;;;12.80;;
61938;SDS011;47897;50.322;18.892;2022-09-09T07:31:24;18.90;;;12.50;;
61938;SDS011;47897;50.322;18.892;2022-09-09T07:33:52;15.20;;;11.70;;
61938;SDS011;47897;50.322;18.892;2022-09-09T07:36:21;17.30;;;11.50;;
61938;SDS011;47897;50.322;18.892;2022-09-09T07:38:50;13.70;;;11.40;;
61938;SDS011;47897;50.322;18.892;2022-09-09T07:41:23;13.90;;;10.70;;
61938;SDS011;47897;50.322;18.892;2022-09-09T07:43:53;13.50;;;10.80;;
61938;SDS011;47897;50.322;18.892;2022-09-09T07:46:21;16.40;;;10.80;;
61938;SDS011;47897;50.322;18.892;2022-09-09T07:48:53;16.30;;;12.10;;
61938;SDS011;47897;50.322;18.892;2022-09-09T07:51:24;17.50;;;11.30;;
61938;SDS011;47897;50.322;18.892;2022-09-09T07:53:54;15.60;;;11.40;;
61938;SDS011;47897;50.322;18.892;2022-09-09T07:56:24;14.30;;;10.40;;
61938;SDS011;47897;50.322;18.892;2022-09-09T07:58:53;15.70;;;10.50;;
61938;SDS011;47897;50.322;18.892;2022-09-09T08:01:26;14.00;;;10.40;;
61938;SDS011;47897;50.322;18.892;2022-09-09T08:04:02;14.20;;;9.10;;
61938;SDS011;47897;50.322;18.892;2022-09-09T08:06:32;14.80;;;10.40;;
61938;SDS011;47897;50.322;18.892;2022-09-09T08:09:02;15.60;;;10.20;;
61938;SDS011;47897;50.322;18.892;2022-09-09T08:11:30;17.20;;;11.30;;
61938;SDS011;47897;50.322;18.892;2022-09-09T08:13:59;12.30;;;10.10;;
61938;SDS011;47897;50.322;18.892;2022-09-09T08:16:27;15.80;;;10.10;;
61938;SDS011;47897;50.322;18.892;2022-09-09T08:18:57;16.20;;;10.50;;
61938;SDS011;47897;50.322;18.892;2022-09-09T08:21:28;11.50;;;8.60;;
61938;SDS011;47897;50.322;18.892;2022-09-09T08:23:58;13.80;;;10.00;;
61938;SDS011;47897;50.322;18.892;2022-09-09T08:26:27;12.90;;;10.00;;
61938;SDS011;47897;50.322;18.892;2022-09-09T08:28:57;15.30;;;11.40;;
61938;SDS011;47897;50.322;18.892;2022-09-09T08:33:54;17.30;;;11.10;;
61938;SDS011;47897;50.322;18.892;2022-09-09T08:36:24;16.30;;;10.50;;
61938;SDS011;47897;50.322;18.892;2022-09-09T08:38:54;13.80;;;9.90;;
61938;SDS011;47897;50.322;18.892;2022-09-09T08:44:00;13.10;;;9.10;;
61938;SDS011;47897;50.322;18.892;2022-09-09T08:46:39;13.70;;;9.30;;
61938;SDS011;47897;50.322;18.892;2022-09-09T08:52:22;17.20;;;11.40;;
61938;SDS011;47897;50.322;18.892;2022-09-09T08:55:01;14.00;;;10.30;;
61938;SDS011;47897;50.322;18.892;2022-09-09T08:57:38;11.50;;;9.60;;
61938;SDS011;47897;50.322;18.892;2022-09-09T09:00:07;12.70;;;9.00;;
61938;SDS011;47897;50.322;18.892;2022-09-09T09:05:29;12.70;;;8.00;;
61938;SDS011;47897;50.322;18.892;2022-09-09T09:11:10;15.50;;;10.20;;
61938;SDS011;47897;50.322;18.892;2022-09-09T09:19:16;14.40;;;10.70;;
61938;SDS011;47897;50.322;18.892;2022-09-09T09:21:45;14.30;;;10.50;;
61938;SDS011;47897;50.322;18.892;2022-09-09T09:24:20;15.90;;;10.30;;
61938;SDS011;47897;50.322;18.892;2022-09-09T09:26:53;13.30;;;10.40;;
61938;SDS011;47897;50.322;18.892;2022-09-09T09:29:21;13.90;;;9.60;;
61938;SDS011;47897;50.322;18.892;2022-09-09T09:31:52;17.80;;;11.50;;
61938;SDS011;47897;50.322;18.892;2022-09-09T09:34:25;13.40;;;9.70;;
61938;SDS011;47897;50.322;18.892;2022-09-09T09:36:53;13.00;;;9.30;;
61938;SDS011;47897;50.322;18.892;2022-09-09T09:41:50;13.60;;;9.90;;
61938;SDS011;47897;50.322;18.892;2022-09-09T09:47:13;13.00;;;9.50;;
61938;SDS011;47897;50.322;18.892;2022-09-09T09:49:54;11.50;;;8.10;;
61938;SDS011;47897;50.322;18.892;2022-09-09T09:52:28;12.40;;;8.20;;
61938;SDS011;47897;50.322;18.892;2022-09-09T09:54:58;11.00;;;7.70;;
61938;SDS011;47897;50.322;18.892;2022-09-09T09:57:29;8.90;;;6.10;;
61938;SDS011;47897;50.322;18.892;2022-09-09T10:00:12;8.60;;;6.40;;
61938;SDS011;47897;50.322;18.892;2022-09-09T10:02:47;10.40;;;6.60;;
61938;SDS011;47897;50.322;18.892;2022-09-09T10:05:17;10.10;;;6.70;;
61938;SDS011;47897;50.322;18.892;2022-09-09T10:08:01;7.60;;;6.20;;
61938;SDS011;47897;50.322;18.892;2022-09-09T10:19:03;8.60;;;7.70;;
61938;SDS011;47897;50.322;18.892;2022-09-09T10:21:43;10.50;;;8.10;;
61938;SDS011;47897;50.322;18.892;2022-09-09T10:27:30;8.50;;;6.30;;
61938;SDS011;47897;50.322;18.892;2022-09-09T10:32:48;8.90;;;5.80;;
61938;SDS011;47897;50.322;18.892;2022-09-09T10:35:24;7.80;;;6.30;;
61938;SDS011;47897;50.322;18.892;2022-09-09T10:40:50;5.70;;;4.80;;
61938;SDS011;47897;50.322;18.892;2022-09-09T10:43:50;6.00;;;4.50;;
61938;SDS011;47897;50.322;18.892;2022-09-09T10:49:21;7.10;;;5.00;;
61938;SDS011;47897;50.322;18.892;2022-09-09T10:52:06;10.60;;;5.70;;
61938;SDS011;47897;50.322;18.892;2022-09-09T11:00:16;6.70;;;4.60;;
61938;SDS011;47897;50.322;18.892;2022-09-09T11:03:03;4.20;;;3.80;;
61938;SDS011;47897;50.322;18.892;2022-09-09T11:08:18;5.90;;;5.00;;
61938;SDS011;47897;50.322;18.892;2022-09-09T11:13:55;5.40;;;4.80;;
61938;SDS011;47897;50.322;18.892;2022-09-09T11:21:45;6.60;;;4.60;;
61938;SDS011;47897;50.322;18.892;2022-09-09T11:29:43;6.20;;;5.20;;
61938;SDS011;47897;50.322;18.892;2022-09-09T11:40:41;7.40;;;5.90;;
61938;SDS011;47897;50.322;18.892;2022-09-09T11:45:41;6.10;;;5.40;;
61938;SDS011;47897;50.322;18.892;2022-09-09T11:48:57;8.40;;;5.70;;
61938;SDS011;47897;50.322;18.892;2022-09-09T11:51:24;7.50;;;6.30;;
61938;SDS011;47897;50.322;18.892;2022-09-09T11:53:55;7.90;;;6.20;;
61938;SDS011;47897;50.322;18.892;2022-09-09T11:56:26;6.10;;;5.50;;
61938;SDS011;47897;50.322;18.892;2022-09-09T11:58:57;6.40;;;5.50;;
61938;SDS011;47897;50.322;18.892;2022-09-09T12:01:33;7.00;;;5.00;;
61938;SDS011;47897;50.322;18.892;2022-09-09T12:04:09;7.50;;;5.50;;
61938;SDS011;47897;50.322;18.892;2022-09-09T12:19:42;7.00;;;5.90;;
61938;SDS011;47897;50.322;18.892;2022-09-09T12:27:58;6.80;;;6.00;;
61938;SDS011;47897;50.322;18.892;2022-09-09T12:30:44;6.80;;;4.80;;
61938;SDS011;47897;50.322;18.892;2022-09-09T12:33:18;8.50;;;6.40;;
61938;SDS011;47897;50.322;18.892;2022-09-09T12:35:47;8.10;;;5.90;;
61938;SDS011;47897;50.322;18.892;2022-09-09T12:38:37;6.00;;;5.10;;
61938;SDS011;47897;50.322;18.892;2022-09-09T12:41:06;9.20;;;5.50;;
61938;SDS011;47897;50.322;18.892;2022-09-09T12:43:45;6.60;;;5.70;;
61938;SDS011;47897;50.322;18.892;2022-09-09T12:46:17;6.90;;;5.20;;
61938;SDS011;47897;50.322;18.892;2022-09-09T12:49:00;6.90;;;4.80;;
61938;SDS011;47897;50.322;18.892;2022-09-09T12:51:28;6.40;;;5.00;;
61938;SDS011;47897;50.322;18.892;2022-09-09T12:53:58;8.00;;;4.90;;
61938;SDS011;47897;50.322;18.892;2022-09-09T12:56:27;6.60;;;4.50;;
61938;SDS011;47897;50.322;18.892;2022-09-09T12:58:56;8.20;;;4.80;;
61938;SDS011;47897;50.322;18.892;2022-09-09T13:01:25;8.60;;;5.00;;
61938;SDS011;47897;50.322;18.892;2022-09-09T13:04:19;8.10;;;4.50;;
61938;SDS011;47897;50.322;18.892;2022-09-09T13:06:48;6.80;;;4.20;;
61938;SDS011;47897;50.322;18.892;2022-09-09T13:09:15;5.30;;;4.40;;
61938;SDS011;47897;50.322;18.892;2022-09-09T13:11:43;7.30;;;4.10;;
61938;SDS011;47897;50.322;18.892;2022-09-09T13:14:29;7.30;;;4.50;;
61938;SDS011;47897;50.322;18.892;2022-09-09T13:17:06;5.30;;;4.20;;
61938;SDS011;47897;50.322;18.892;2022-09-09T13:19:44;7.10;;;4.30;;
61938;SDS011;47897;50.322;18.892;2022-09-09T13:22:13;5.40;;;4.40;;
61938;SDS011;47897;50.322;18.892;2022-09-09T13:27:33;6.10;;;4.60;;
61938;SDS011;47897;50.322;18.892;2022-09-09T13:30:19;8.20;;;4.60;;
61938;SDS011;47897;50.322;18.892;2022-09-09T13:33:01;5.90;;;3.80;;
61938;SDS011;47897;50.322;18.892;2022-09-09T13:35:30;5.30;;;4.00;;
61938;SDS011;47897;50.322;18.892;2022-09-09T13:37:59;6.20;;;4.80;;
61938;SDS011;47897;50.322;18.892;2022-09-09T13:40:35;5.40;;;4.10;;
61938;SDS011;47897;50.322;18.892;2022-09-09T13:43:03;5.10;;;4.10;;
61938;SDS011;47897;50.322;18.892;2022-09-09T13:45:30;5.80;;;4.30;;
61938;SDS011;47897;50.322;18.892;2022-09-09T13:47:57;4.90;;;4.40;;
61938;SDS011;47897;50.322;18.892;2022-09-09T13:50:35;5.90;;;4.80;;
61938;SDS011;47897;50.322;18.892;2022-09-09T13:53:02;7.40;;;4.70;;
61938;SDS011;47897;50.322;18.892;2022-09-09T13:55:30;6.00;;;4.70;;
61938;SDS011;47897;50.322;18.892;2022-09-09T13:57:59;6.50;;;4.80;;
61938;SDS011;47897;50.322;18.892;2022-09-09T14:00:31;7.20;;;4.70;;
61938;SDS011;47897;50.322;18.892;2022-09-09T14:03:04;5.70;;;4.20;;
61938;SDS011;47897;50.322;18.892;2022-09-09T14:05:31;6.70;;;4.90;;
61938;SDS011;47897;50.322;18.892;2022-09-09T14:08:00;6.60;;;5.20;;
61938;SDS011;47897;50.322;18.892;2022-09-09T14:10:29;6.20;;;4.20;;
61938;SDS011;47897;50.322;18.892;2022-09-09T14:12:56;7.00;;;4.60;;
61938;SDS011;47897;50.322;18.892;2022-09-09T14:15:23;7.60;;;4.80;;
61938;SDS011;47897;50.322;18.892;2022-09-09T14:17:50;8.30;;;4.50;;
61938;SDS011;47897;50.322;18.892;2022-09-09T14:20:18;6.10;;;3.90;;
61938;SDS011;47897;50.322;18.892;2022-09-09T14:22:45;5.50;;;4.30;;
61938;SDS011;47897;50.322;18.892;2022-09-09T14:25:12;6.90;;;4.30;;
61938;SDS011;47897;50.322;18.892;2022-09-09T14:27:42;5.40;;;4.30;;
61938;SDS011;47897;50.322;18.892;2022-09-09T14:30:10;5.50;;;4.30;;
61938;SDS011;47897;50.322;18.892;2022-09-09T14:32:37;6.60;;;3.60;;
61938;SDS011;47897;50.322;18.892;2022-09-09T14:35:04;4.70;;;4.10;;
61938;SDS011;47897;50.322;18.892;2022-09-09T14:37:31;5.30;;;3.80;;
61938;SDS011;47897;50.322;18.892;2022-09-09T14:39:58;4.40;;;3.80;;
61938;SDS011;47897;50.322;18.892;2022-09-09T14:42:25;5.40;;;3.90;;
61938;SDS011;47897;50.322;18.892;2022-09-09T14:44:53;6.00;;;3.80;;
61938;SDS011;47897;50.322;18.892;2022-09-09T14:47:20;7.60;;;4.00;;
61938;SDS011;47897;50.322;18.892;2022-09-09T14:49:47;4.30;;;3.80;;
61938;SDS011;47897;50.322;18.892;2022-09-09T14:52:16;6.60;;;3.60;;
61938;SDS011;47897;50.322;18.892;2022-09-09T14:54:43;6.50;;;3.80;;
61938;SDS011;47897;50.322;18.892;2022-09-09T14:57:10;6.50;;;3.60;;
61938;SDS011;47897;50.322;18.892;2022-09-09T14:59:37;6.70;;;3.70;;
61938;SDS011;47897;50.322;18.892;2022-09-09T15:02:04;5.80;;;3.90;;
61938;SDS011;47897;50.322;18.892;2022-09-09T15:04:31;7.00;;;4.40;;
61938;SDS011;47897;50.322;18.892;2022-09-09T15:06:58;5.50;;;3.90;;
61938;SDS011;47897;50.322;18.892;2022-09-09T15:09:25;5.10;;;3.60;;
61938;SDS011;47897;50.322;18.892;2022-09-09T15:11:52;6.40;;;4.20;;
61938;SDS011;47897;50.322;18.892;2022-09-09T15:14:19;7.70;;;4.00;;
61938;SDS011;47897;50.322;18.892;2022-09-09T15:16:47;5.50;;;4.10;;
61938;SDS011;47897;50.322;18.892;2022-09-09T15:19:14;6.00;;;3.80;;
61938;SDS011;47897;50.322;18.892;2022-09-09T15:21:41;8.00;;;3.90;;
61938;SDS011;47897;50.322;18.892;2022-09-09T15:24:07;6.80;;;3.90;;
61938;SDS011;47897;50.322;18.892;2022-09-09T15:26:34;6.00;;;3.80;;
61938;SDS011;47897;50.322;18.892;2022-09-09T15:29:05;6.30;;;3.90;;
61938;SDS011;47897;50.322;18.892;2022-09-09T15:31:34;9.00;;;3.60;;
61938;SDS011;47897;50.322;18.892;2022-09-09T15:34:05;6.40;;;4.50;;
61938;SDS011;47897;50.322;18.892;2022-09-09T15:36:34;6.60;;;4.00;;
61938;SDS011;47897;50.322;18.892;2022-09-09T15:39:04;7.40;;;4.40;;
61938;SDS011;47897;50.322;18.892;2022-09-09T15:44:01;9.50;;;5.00;;
61938;SDS011;47897;50.322;18.892;2022-09-09T15:46:30;10.40;;;5.40;;
61938;SDS011;47897;50.322;18.892;2022-09-09T15:49:05;11.80;;;6.20;;
61938;SDS011;47897;50.322;18.892;2022-09-09T15:51:32;11.40;;;7.70;;
61938;SDS011;47897;50.322;18.892;2022-09-09T15:53:59;12.60;;;6.90;;
61938;SDS011;47897;50.322;18.892;2022-09-09T15:56:27;17.40;;;7.30;;
61938;SDS011;47897;50.322;18.892;2022-09-09T15:58:57;9.50;;;7.00;;
61938;SDS011;47897;50.322;18.892;2022-09-09T16:01:28;10.70;;;7.20;;
61938;SDS011;47897;50.322;18.892;2022-09-09T16:03:57;13.20;;;6.80;;
61938;SDS011;47897;50.322;18.892;2022-09-09T16:06:25;17.40;;;7.70;;
61938;SDS011;47897;50.322;18.892;2022-09-09T16:08:55;15.20;;;7.40;;
61938;SDS011;47897;50.322;18.892;2022-09-09T16:11:28;16.90;;;7.20;;
61938;SDS011;47897;50.322;18.892;2022-09-09T16:13:58;24.60;;;7.30;;
61938;SDS011;47897;50.322;18.892;2022-09-09T16:16:27;15.40;;;8.30;;
61938;SDS011;47897;50.322;18.892;2022-09-09T16:18:56;16.20;;;9.40;;
61938;SDS011;47897;50.322;18.892;2022-09-09T16:21:25;12.10;;;7.20;;
61938;SDS011;47897;50.322;18.892;2022-09-09T16:23:58;11.20;;;6.40;;
61938;SDS011;47897;50.322;18.892;2022-09-09T16:26:27;13.20;;;6.40;;
61938;SDS011;47897;50.322;18.892;2022-09-09T16:28:55;11.40;;;6.30;;
61938;SDS011;47897;50.322;18.892;2022-09-09T16:31:24;11.50;;;6.20;;
61938;SDS011;47897;50.322;18.892;2022-09-09T16:33:53;11.80;;;6.50;;
61938;SDS011;47897;50.322;18.892;2022-09-09T16:36:24;14.20;;;6.90;;
61938;SDS011;47897;50.322;18.892;2022-09-09T16:38:54;12.30;;;6.80;;
61938;SDS011;47897;50.322;18.892;2022-09-09T16:41:24;10.00;;;6.50;;
61938;SDS011;47897;50.322;18.892;2022-09-09T16:43:53;12.30;;;6.70;;
61938;SDS011;47897;50.322;18.892;2022-09-09T16:46:21;10.30;;;6.50;;
61938;SDS011;47897;50.322;18.892;2022-09-09T16:48:50;13.30;;;7.40;;
61938;SDS011;47897;50.322;18.892;2022-09-09T16:51:19;13.80;;;7.80;;
61938;SDS011;47897;50.322;18.892;2022-09-09T16:53:51;21.40;;;7.80;;
61938;SDS011;47897;50.322;18.892;2022-09-09T16:56:23;13.80;;;8.80;;
61938;SDS011;47897;50.322;18.892;2022-09-09T16:58:54;16.90;;;9.70;;
61938;SDS011;47897;50.322;18.892;2022-09-09T17:01:23;18.70;;;10.80;;
61938;SDS011;47897;50.322;18.892;2022-09-09T17:03:52;18.00;;;10.20;;
61938;SDS011;47897;50.322;18.892;2022-09-09T17:06:20;19.50;;;10.20;;
61938;SDS011;47897;50.322;18.892;2022-09-09T17:08:47;21.10;;;9.80;;
61938;SDS011;47897;50.322;18.892;2022-09-09T17:11:16;17.40;;;10.00;;
61938;SDS011;47897;50.322;18.892;2022-09-09T17:13:45;21.50;;;11.70;;
61938;SDS011;47897;50.322;18.892;2022-09-09T17:16:14;17.80;;;10.10;;
61938;SDS011;47897;50.322;18.892;2022-09-09T17:18:43;16.30;;;10.50;;